This is the latest recevied weather packets stored in our database for station/object WC4PEM-6. If no packets are shown the sender has not sent any weather packets the latest 1 day(s).
| Time | Temp. | Humidity | Pressure | Rain* | Wind** | Luminosity | Snow |
|---|---|---|---|---|---|---|---|
| 1836274579 | 25° C | 83% | 1015.8 hPa | 0 mm | 0.45 m/s, 76° | - | - |
| 1836274429 | 24.44° C | 84% | 1015.7 hPa | 0 mm | 0.45 m/s, 83° | - | - |
| 1836274284 | 25° C | 80% | 1015.9 hPa | 0 mm | 0.45 m/s, 51° | - | - |
| 1836274279 | 25° C | 83% | 1015.8 hPa | 0 mm | 0.45 m/s, 51° | - | - |
| 1836274129 | 24.44° C | 83% | 1015.9 hPa | 0 mm | 0.45 m/s, 93° | - | - |
| 1836273979 | 25° C | 83% | 1015.8 hPa | 0 mm | 0.45 m/s, 86° | - | - |
| 1778046751 | 21.11° C | 78% | 1015.7 hPa | 0 mm | 0.45 m/s, 67° | - | - |
| 1778046604 | 21.11° C | 78% | 1015.7 hPa | 0 mm | 0.45 m/s, 67° | - | - |
| 1778046304 | 21.11° C | 78% | 1015.7 hPa | 0 mm | 0.45 m/s, 51° | - | - |
| 1778046004 | 21.11° C | 77% | 1015.7 hPa | 0 mm | 0.45 m/s, 67° | - | - |
| 1778045704 | 21.11° C | 77% | 1016 hPa | 0 mm | 0.45 m/s, 221° | - | - |
| 1778045404 | 21.11° C | 77% | 1015.9 hPa | 0 mm | 0.45 m/s, 93° | - | - |
| 1778045104 | 21.11° C | 77% | 1015.8 hPa | 0 mm | 0.45 m/s, 80° | - | - |
| 1778044804 | 21.11° C | 77% | 1015.9 hPa | 0 mm | 0.45 m/s, 51° | - | - |
| 1778044504 | 21.11° C | 76% | 1015.9 hPa | 0 mm | 0.45 m/s, 51° | - | - |
| 1778044204 | 21.11° C | 76% | 1016 hPa | 0 mm | 0.45 m/s, 93° | - | - |
| 1778043904 | 21.11° C | 76% | 1016.2 hPa | 0 mm | 0.45 m/s, 76° | - | - |
| 1778043691 | 21.11° C | 75% | 1016.3 hPa | 0 mm | 0.45 m/s, 93° | - | - |
| 1778043604 | 21.11° C | 75% | 1016.3 hPa | 0 mm | 0.45 m/s, 93° | - | - |
| 1778043304 | 21.11° C | 75% | 1016.3 hPa | 0 mm | 0.45 m/s, 67° | - | - |
| 1778043004 | 21.11° C | 75% | 1016.3 hPa | 0 mm | 0.45 m/s, 93° | - | - |
| 1778042746 | 21.11° C | 75% | 1016.2 hPa | 0 mm | 0.45 m/s, 85° | - | - |
| 1778042704 | 21.11° C | 75% | 1016.2 hPa | 0 mm | 0.45 m/s, 83° | - | - |
| 1778042404 | 21.11° C | 75% | 1016.2 hPa | 0 mm | 0.45 m/s, 85° | - | - |
| 1778042403 | 21.67° C | 74% | 1016.2 hPa | 0 mm | 0.45 m/s, 51° | - | - |
* Rain latest hour (hover to see other rain measurements)
** Current wind speed in m/s (hover to see current wind gust speed)